sensor_id;sensor_type;location;lat;lon;timestamp;temperature;humidity
11894;DHT22;6006;49.696;8.662;2022-10-03T00:01:42;12.10;99.90
11894;DHT22;6006;49.696;8.662;2022-10-03T00:07:09;12.00;99.90
11894;DHT22;6006;49.696;8.662;2022-10-03T00:09:59;12.00;99.90
11894;DHT22;6006;49.696;8.662;2022-10-03T00:12:52;11.90;99.90
11894;DHT22;6006;49.696;8.662;2022-10-03T00:15:26;11.90;99.90
11894;DHT22;6006;49.696;8.662;2022-10-03T00:18:02;11.70;99.90
11894;DHT22;6006;49.696;8.662;2022-10-03T00:20:47;11.70;99.90
11894;DHT22;6006;49.696;8.662;2022-10-03T00:23:22;11.60;99.90
11894;DHT22;6006;49.696;8.662;2022-10-03T00:25:58;11.50;99.90
11894;DHT22;6006;49.696;8.662;2022-10-03T00:31:44;11.40;99.90
11894;DHT22;6006;49.696;8.662;2022-10-03T00:34:22;11.30;99.90
11894;DHT22;6006;49.696;8.662;2022-10-03T00:37:04;11.20;99.90
11894;DHT22;6006;49.696;8.662;2022-10-03T00:39:42;11.20;99.90
11894;DHT22;6006;49.696;8.662;2022-10-03T00:45:39;10.90;99.90
11894;DHT22;6006;49.696;8.662;2022-10-03T00:48:35;10.80;99.90
11894;DHT22;6006;49.696;8.662;2022-10-03T00:51:32;10.80;99.90
11894;DHT22;6006;49.696;8.662;2022-10-03T00:54:15;10.70;99.90
11894;DHT22;6006;49.696;8.662;2022-10-03T00:56:59;10.70;99.90
11894;DHT22;6006;49.696;8.662;2022-10-03T00:59:42;10.60;99.90
11894;DHT22;6006;49.696;8.662;2022-10-03T01:02:31;10.60;99.90
11894;DHT22;6006;49.696;8.662;2022-10-03T01:05:10;10.60;99.90
11894;DHT22;6006;49.696;8.662;2022-10-03T01:08:04;10.60;99.90
11894;DHT22;6006;49.696;8.662;2022-10-03T01:10:40;10.60;99.90
11894;DHT22;6006;49.696;8.662;2022-10-03T01:13:19;10.70;99.90
11894;DHT22;6006;49.696;8.662;2022-10-03T01:15:53;10.70;99.90
11894;DHT22;6006;49.696;8.662;2022-10-03T01:18:41;10.70;99.90
11894;DHT22;6006;49.696;8.662;2022-10-03T01:21:17;10.70;99.90
11894;DHT22;6006;49.696;8.662;2022-10-03T01:24:25;10.80;99.90
11894;DHT22;6006;49.696;8.662;2022-10-03T01:27:01;10.90;99.90
11894;DHT22;6006;49.696;8.662;2022-10-03T01:29:42;10.90;99.90
11894;DHT22;6006;49.696;8.662;2022-10-03T01:32:31;10.90;99.90
11894;DHT22;6006;49.696;8.662;2022-10-03T01:35:09;11.00;99.90
11894;DHT22;6006;49.696;8.662;2022-10-03T01:37:42;11.00;99.90
11894;DHT22;6006;49.696;8.662;2022-10-03T01:40:18;11.10;99.90
11894;DHT22;6006;49.696;8.662;2022-10-03T01:42:59;11.10;99.90
11894;DHT22;6006;49.696;8.662;2022-10-03T01:45:36;11.10;99.90
11894;DHT22;6006;49.696;8.662;2022-10-03T01:48:08;11.10;99.90
11894;DHT22;6006;49.696;8.662;2022-10-03T01:50:44;11.10;99.90
11894;DHT22;6006;49.696;8.662;2022-10-03T01:53:22;11.10;99.90
11894;DHT22;6006;49.696;8.662;2022-10-03T01:55:57;11.00;99.90
11894;DHT22;6006;49.696;8.662;2022-10-03T01:58:29;11.00;99.90
11894;DHT22;6006;49.696;8.662;2022-10-03T02:01:09;11.00;99.90
11894;DHT22;6006;49.696;8.662;2022-10-03T02:03:44;10.90;99.90
11894;DHT22;6006;49.696;8.662;2022-10-03T02:06:20;10.90;99.90
11894;DHT22;6006;49.696;8.662;2022-10-03T02:08:53;10.90;99.90
11894;DHT22;6006;49.696;8.662;2022-10-03T02:11:29;10.80;99.90
11894;DHT22;6006;49.696;8.662;2022-10-03T02:14:06;10.80;99.90
11894;DHT22;6006;49.696;8.662;2022-10-03T02:16:42;10.80;99.90
11894;DHT22;6006;49.696;8.662;2022-10-03T02:19:17;10.80;99.90
11894;DHT22;6006;49.696;8.662;2022-10-03T02:21:48;10.80;99.90
11894;DHT22;6006;49.696;8.662;2022-10-03T02:24:37;10.80;99.90
11894;DHT22;6006;49.696;8.662;2022-10-03T02:27:27;10.80;99.90
11894;DHT22;6006;49.696;8.662;2022-10-03T02:30:18;10.70;99.90
11894;DHT22;6006;49.696;8.662;2022-10-03T02:36:27;10.60;99.90
11894;DHT22;6006;49.696;8.662;2022-10-03T02:39:11;10.50;99.90
11894;DHT22;6006;49.696;8.662;2022-10-03T02:45:00;10.50;99.90
11894;DHT22;6006;49.696;8.662;2022-10-03T03:00:06;10.20;99.90
11894;DHT22;6006;49.696;8.662;2022-10-03T03:08:59;10.00;99.90
11894;DHT22;6006;49.696;8.662;2022-10-03T03:11:47;10.00;99.90
11894;DHT22;6006;49.696;8.662;2022-10-03T03:17:56;9.90;99.90
11894;DHT22;6006;49.696;8.662;2022-10-03T03:20:39;9.80;99.90
11894;DHT22;6006;49.696;8.662;2022-10-03T03:23:36;9.80;99.90
11894;DHT22;6006;49.696;8.662;2022-10-03T03:26:23;9.80;99.90
11894;DHT22;6006;49.696;8.662;2022-10-03T03:28:58;9.80;99.90
11894;DHT22;6006;49.696;8.662;2022-10-03T03:31:30;9.80;99.90
11894;DHT22;6006;49.696;8.662;2022-10-03T03:34:05;9.80;99.90
11894;DHT22;6006;49.696;8.662;2022-10-03T03:36:39;9.80;99.90
11894;DHT22;6006;49.696;8.662;2022-10-03T03:39:22;9.80;99.90
11894;DHT22;6006;49.696;8.662;2022-10-03T03:42:18;9.90;99.90
11894;DHT22;6006;49.696;8.662;2022-10-03T03:45:06;9.80;99.90
11894;DHT22;6006;49.696;8.662;2022-10-03T03:47:55;9.80;99.90
11894;DHT22;6006;49.696;8.662;2022-10-03T03:50:38;9.80;99.90
11894;DHT22;6006;49.696;8.662;2022-10-03T03:53:35;9.80;99.90
11894;DHT22;6006;49.696;8.662;2022-10-03T03:56:21;9.80;99.90
11894;DHT22;6006;49.696;8.662;2022-10-03T03:59:04;9.80;99.90
11894;DHT22;6006;49.696;8.662;2022-10-03T04:01:52;9.80;99.90
11894;DHT22;6006;49.696;8.662;2022-10-03T04:04:42;9.70;99.90
11894;DHT22;6006;49.696;8.662;2022-10-03T04:07:20;9.60;99.90
11894;DHT22;6006;49.696;8.662;2022-10-03T04:10:04;9.50;99.90
11894;DHT22;6006;49.696;8.662;2022-10-03T04:13:00;9.30;99.90
11894;DHT22;6006;49.696;8.662;2022-10-03T04:15:42;9.20;99.90
11894;DHT22;6006;49.696;8.662;2022-10-03T04:18:26;9.20;99.90
11894;DHT22;6006;49.696;8.662;2022-10-03T04:21:39;9.10;99.90
11894;DHT22;6006;49.696;8.662;2022-10-03T04:24:34;9.10;99.90
11894;DHT22;6006;49.696;8.662;2022-10-03T04:27:14;9.10;99.90
11894;DHT22;6006;49.696;8.662;2022-10-03T04:29:45;9.10;99.90
11894;DHT22;6006;49.696;8.662;2022-10-03T04:32:35;9.10;99.90
11894;DHT22;6006;49.696;8.662;2022-10-03T04:35:28;9.10;99.90
11894;DHT22;6006;49.696;8.662;2022-10-03T04:38:05;9.10;99.90
11894;DHT22;6006;49.696;8.662;2022-10-03T04:40:42;9.10;99.90
11894;DHT22;6006;49.696;8.662;2022-10-03T04:43:14;9.00;99.90
11894;DHT22;6006;49.696;8.662;2022-10-03T04:46:04;8.90;99.90
11894;DHT22;6006;49.696;8.662;2022-10-03T04:48:44;8.90;99.90
11894;DHT22;6006;49.696;8.662;2022-10-03T04:51:18;8.90;99.90
11894;DHT22;6006;49.696;8.662;2022-10-03T04:53:52;8.80;99.90
11894;DHT22;6006;49.696;8.662;2022-10-03T04:56:39;8.80;99.90
11894;DHT22;6006;49.696;8.662;2022-10-03T04:59:21;8.80;99.90
11894;DHT22;6006;49.696;8.662;2022-10-03T05:01:54;8.70;99.90
11894;DHT22;6006;49.696;8.662;2022-10-03T05:04:35;8.70;99.90
11894;DHT22;6006;49.696;8.662;2022-10-03T05:07:10;8.70;99.90
11894;DHT22;6006;49.696;8.662;2022-10-03T05:09:47;8.70;99.90
11894;DHT22;6006;49.696;8.662;2022-10-03T05:12:24;8.60;99.90
11894;DHT22;6006;49.696;8.662;2022-10-03T05:15:10;8.60;99.90
11894;DHT22;6006;49.696;8.662;2022-10-03T05:17:45;8.60;99.90
11894;DHT22;6006;49.696;8.662;2022-10-03T05:20:39;8.50;99.90
11894;DHT22;6006;49.696;8.662;2022-10-03T05:23:22;8.50;99.90
11894;DHT22;6006;49.696;8.662;2022-10-03T05:26:04;8.50;99.90
11894;DHT22;6006;49.696;8.662;2022-10-03T05:28:38;8.50;99.90
11894;DHT22;6006;49.696;8.662;2022-10-03T05:31:20;8.50;99.90
11894;DHT22;6006;49.696;8.662;2022-10-03T05:33:57;8.50;99.90
11894;DHT22;6006;49.696;8.662;2022-10-03T05:36:34;8.40;99.90
11894;DHT22;6006;49.696;8.662;2022-10-03T05:39:34;8.30;99.90
11894;DHT22;6006;49.696;8.662;2022-10-03T05:42:30;8.30;99.90
11894;DHT22;6006;49.696;8.662;2022-10-03T05:45:03;8.30;99.90
11894;DHT22;6006;49.696;8.662;2022-10-03T05:47:35;8.30;99.90
11894;DHT22;6006;49.696;8.662;2022-10-03T05:53:37;8.30;99.90
11894;DHT22;6006;49.696;8.662;2022-10-03T05:56:19;8.30;99.90
11894;DHT22;6006;49.696;8.662;2022-10-03T05:59:16;8.30;99.90
11894;DHT22;6006;49.696;8.662;2022-10-03T06:05:15;8.30;99.90
11894;DHT22;6006;49.696;8.662;2022-10-03T06:08:00;8.30;99.90
11894;DHT22;6006;49.696;8.662;2022-10-03T06:10:41;8.40;99.90
11894;DHT22;6006;49.696;8.662;2022-10-03T06:13:17;8.30;99.90
11894;DHT22;6006;49.696;8.662;2022-10-03T06:15:58;8.90;99.90
11894;DHT22;6006;49.696;8.662;2022-10-03T06:18:58;8.70;99.90
11894;DHT22;6006;49.696;8.662;2022-10-03T06:25:15;8.60;99.90
11894;DHT22;6006;49.696;8.662;2022-10-03T06:34:28;8.90;99.90
11894;DHT22;6006;49.696;8.662;2022-10-03T06:40:40;8.90;99.90
11894;DHT22;6006;49.696;8.662;2022-10-03T06:49:32;9.50;99.90
11894;DHT22;6006;49.696;8.662;2022-10-03T06:55:21;10.20;99.90
11894;DHT22;6006;49.696;8.662;2022-10-03T06:58:20;10.10;99.90
11894;DHT22;6006;49.696;8.662;2022-10-03T07:01:04;10.40;99.90
11894;DHT22;6006;49.696;8.662;2022-10-03T07:04:02;10.60;99.90
11894;DHT22;6006;49.696;8.662;2022-10-03T07:06:54;10.80;99.90
11894;DHT22;6006;49.696;8.662;2022-10-03T07:12:59;11.00;99.90
11894;DHT22;6006;49.696;8.662;2022-10-03T07:15:45;11.10;99.90
11894;DHT22;6006;49.696;8.662;2022-10-03T07:18:50;11.30;99.90
11894;DHT22;6006;49.696;8.662;2022-10-03T07:30:59;11.80;99.90
11894;DHT22;6006;49.696;8.662;2022-10-03T07:36:49;11.50;99.90
11894;DHT22;6006;49.696;8.662;2022-10-03T07:40:04;11.60;99.90
11894;DHT22;6006;49.696;8.662;2022-10-03T07:42:56;11.60;99.90
11894;DHT22;6006;49.696;8.662;2022-10-03T07:45:36;11.70;99.90
11894;DHT22;6006;49.696;8.662;2022-10-03T07:48:24;11.80;99.90
11894;DHT22;6006;49.696;8.662;2022-10-03T07:51:01;12.00;99.90
11894;DHT22;6006;49.696;8.662;2022-10-03T08:00:17;12.10;99.90
11894;DHT22;6006;49.696;8.662;2022-10-03T08:03:31;12.10;99.90
11894;DHT22;6006;49.696;8.662;2022-10-03T08:06:25;12.20;99.90
11894;DHT22;6006;49.696;8.662;2022-10-03T08:09:19;12.40;99.90
11894;DHT22;6006;49.696;8.662;2022-10-03T08:14:55;12.60;99.90
11894;DHT22;6006;49.696;8.662;2022-10-03T08:20:46;12.60;99.90
11894;DHT22;6006;49.696;8.662;2022-10-03T08:23:42;12.70;99.90
11894;DHT22;6006;49.696;8.662;2022-10-03T08:26:18;12.60;99.90
11894;DHT22;6006;49.696;8.662;2022-10-03T08:29:18;12.60;99.90
11894;DHT22;6006;49.696;8.662;2022-10-03T08:35:29;12.50;99.90
11894;DHT22;6006;49.696;8.662;2022-10-03T08:41:38;12.80;99.90
11894;DHT22;6006;49.696;8.662;2022-10-03T08:47:55;12.90;99.90
11894;DHT22;6006;49.696;8.662;2022-10-03T08:50:53;13.00;99.90
11894;DHT22;6006;49.696;8.662;2022-10-03T08:53:55;12.90;99.90
11894;DHT22;6006;49.696;8.662;2022-10-03T08:56:43;12.70;99.90
11894;DHT22;6006;49.696;8.662;2022-10-03T08:59:53;12.70;99.90
11894;DHT22;6006;49.696;8.662;2022-10-03T09:05:39;12.90;99.90
11894;DHT22;6006;49.696;8.662;2022-10-03T09:08:32;13.30;99.90
11894;DHT22;6006;49.696;8.662;2022-10-03T09:14:28;13.60;99.90
11894;DHT22;6006;49.696;8.662;2022-10-03T09:20:41;13.90;99.90
11894;DHT22;6006;49.696;8.662;2022-10-03T09:23:43;13.90;99.90
11894;DHT22;6006;49.696;8.662;2022-10-03T09:26:56;14.10;99.90
11894;DHT22;6006;49.696;8.662;2022-10-03T09:39:10;14.20;99.90
11894;DHT22;6006;49.696;8.662;2022-10-03T09:42:15;14.30;99.90
11894;DHT22;6006;49.696;8.662;2022-10-03T09:45:20;14.30;99.90
11894;DHT22;6006;49.696;8.662;2022-10-03T10:00:20;14.30;99.90
11894;DHT22;6006;49.696;8.662;2022-10-03T10:06:23;15.40;99.90
11894;DHT22;6006;49.696;8.662;2022-10-03T10:12:30;15.50;99.90
11894;DHT22;6006;49.696;8.662;2022-10-03T10:21:49;14.90;99.90
11894;DHT22;6006;49.696;8.662;2022-10-03T10:30:58;15.00;99.90
11894;DHT22;6006;49.696;8.662;2022-10-03T10:37:16;14.50;99.90
11894;DHT22;6006;49.696;8.662;2022-10-03T10:40:41;14.60;99.90
11894;DHT22;6006;49.696;8.662;2022-10-03T10:43:43;14.60;99.90
11894;DHT22;6006;49.696;8.662;2022-10-03T10:46:35;14.80;99.90
11894;DHT22;6006;49.696;8.662;2022-10-03T10:49:38;15.00;99.90
11894;DHT22;6006;49.696;8.662;2022-10-03T10:58:57;15.60;78.10
11894;DHT22;6006;49.696;8.662;2022-10-03T11:05:35;15.60;1.00
11894;DHT22;6006;49.696;8.662;2022-10-03T11:08:52;16.00;1.00
11894;DHT22;6006;49.696;8.662;2022-10-03T11:15:06;15.80;1.00
11894;DHT22;6006;49.696;8.662;2022-10-03T11:21:16;14.70;1.00
11894;DHT22;6006;49.696;8.662;2022-10-03T11:27:26;14.90;33.00
11894;DHT22;6006;49.696;8.662;2022-10-03T11:33:26;15.30;99.90
11894;DHT22;6006;49.696;8.662;2022-10-03T11:39:04;17.10;1.00
11894;DHT22;6006;49.696;8.662;2022-10-03T11:41:39;18.90;99.90
11894;DHT22;6006;49.696;8.662;2022-10-03T11:44:19;18.90;30.20
11894;DHT22;6006;49.696;8.662;2022-10-03T11:52:58;18.10;1.00
11894;DHT22;6006;49.696;8.662;2022-10-03T11:55:32;17.20;1.00
11894;DHT22;6006;49.696;8.662;2022-10-03T11:58:29;16.80;99.90
11894;DHT22;6006;49.696;8.662;2022-10-03T12:01:23;16.80;1.00
11894;DHT22;6006;49.696;8.662;2022-10-03T12:03:58;16.90;99.90
11894;DHT22;6006;49.696;8.662;2022-10-03T12:06:42;16.30;99.90
11894;DHT22;6006;49.696;8.662;2022-10-03T12:09:35;15.50;1.00
11894;DHT22;6006;49.696;8.662;2022-10-03T12:12:11;15.60;1.00
11894;DHT22;6006;49.696;8.662;2022-10-03T12:14:42;15.20;99.90
11894;DHT22;6006;49.696;8.662;2022-10-03T12:17:14;15.20;1.00
11894;DHT22;6006;49.696;8.662;2022-10-03T12:19:52;15.20;1.00
11894;DHT22;6006;49.696;8.662;2022-10-03T12:22:31;15.40;1.00
11894;DHT22;6006;49.696;8.662;2022-10-03T12:25:12;15.30;1.00
11894;DHT22;6006;49.696;8.662;2022-10-03T12:28:00;15.40;1.00
11894;DHT22;6006;49.696;8.662;2022-10-03T12:30:39;15.60;1.00
11894;DHT22;6006;49.696;8.662;2022-10-03T12:33:32;15.50;1.00
11894;DHT22;6006;49.696;8.662;2022-10-03T12:36:08;15.70;1.00
11894;DHT22;6006;49.696;8.662;2022-10-03T12:38:51;15.80;1.00
11894;DHT22;6006;49.696;8.662;2022-10-03T12:41:27;16.00;99.90
11894;DHT22;6006;49.696;8.662;2022-10-03T12:44:12;15.80;1.00
11894;DHT22;6006;49.696;8.662;2022-10-03T12:46:48;16.30;1.00
11894;DHT22;6006;49.696;8.662;2022-10-03T12:49:23;16.60;34.30
11894;DHT22;6006;49.696;8.662;2022-10-03T12:51:55;17.00;1.00
11894;DHT22;6006;49.696;8.662;2022-10-03T12:54:38;17.00;70.20
11894;DHT22;6006;49.696;8.662;2022-10-03T13:00:04;17.40;28.50
11894;DHT22;6006;49.696;8.662;2022-10-03T13:02:34;17.50;99.90
11894;DHT22;6006;49.696;8.662;2022-10-03T13:05:34;18.00;1.00
11894;DHT22;6006;49.696;8.662;2022-10-03T13:08:05;19.00;1.00
11894;DHT22;6006;49.696;8.662;2022-10-03T13:10:42;18.90;1.00
11894;DHT22;6006;49.696;8.662;2022-10-03T13:13:22;18.20;99.90
11894;DHT22;6006;49.696;8.662;2022-10-03T13:16:04;18.40;1.00
11894;DHT22;6006;49.696;8.662;2022-10-03T13:18:46;18.50;1.00
11894;DHT22;6006;49.696;8.662;2022-10-03T13:21:18;18.40;99.90
11894;DHT22;6006;49.696;8.662;2022-10-03T13:23:50;17.70;99.90
11894;DHT22;6006;49.696;8.662;2022-10-03T13:26:22;17.70;99.90
11894;DHT22;6006;49.696;8.662;2022-10-03T13:29:09;17.70;99.90
11894;DHT22;6006;49.696;8.662;2022-10-03T13:31:49;17.70;99.90
11894;DHT22;6006;49.696;8.662;2022-10-03T13:34:22;17.60;99.90
11894;DHT22;6006;49.696;8.662;2022-10-03T13:36:55;17.70;99.90
11894;DHT22;6006;49.696;8.662;2022-10-03T13:39:27;17.80;1.00
11894;DHT22;6006;49.696;8.662;2022-10-03T13:42:00;17.60;99.90
11894;DHT22;6006;49.696;8.662;2022-10-03T13:44:37;17.10;99.90
11894;DHT22;6006;49.696;8.662;2022-10-03T13:47:20;17.30;99.90
11894;DHT22;6006;49.696;8.662;2022-10-03T13:49:52;17.40;1.00
11894;DHT22;6006;49.696;8.662;2022-10-03T13:52:26;17.20;1.00
11894;DHT22;6006;49.696;8.662;2022-10-03T13:55:14;17.20;1.00
11894;DHT22;6006;49.696;8.662;2022-10-03T13:57:45;17.50;1.00
11894;DHT22;6006;49.696;8.662;2022-10-03T14:00:15;17.30;1.00
11894;DHT22;6006;49.696;8.662;2022-10-03T14:03:02;17.00;99.90
11894;DHT22;6006;49.696;8.662;2022-10-03T14:05:55;17.30;99.90
11894;DHT22;6006;49.696;8.662;2022-10-03T14:08:45;17.40;1.00
11894;DHT22;6006;49.696;8.662;2022-10-03T14:11:35;17.30;99.90
11894;DHT22;6006;49.696;8.662;2022-10-03T14:14:33;17.60;1.00
11894;DHT22;6006;49.696;8.662;2022-10-03T14:17:08;17.70;99.90
11894;DHT22;6006;49.696;8.662;2022-10-03T14:19:45;17.60;99.90
11894;DHT22;6006;49.696;8.662;2022-10-03T14:22:27;17.30;99.90
11894;DHT22;6006;49.696;8.662;2022-10-03T14:25:11;16.70;13.00
11894;DHT22;6006;49.696;8.662;2022-10-03T14:27:49;16.40;1.00
11894;DHT22;6006;49.696;8.662;2022-10-03T14:30:18;16.20;1.00
11894;DHT22;6006;49.696;8.662;2022-10-03T14:33:11;16.10;99.90
11894;DHT22;6006;49.696;8.662;2022-10-03T14:35:50;15.90;1.00
11894;DHT22;6006;49.696;8.662;2022-10-03T14:38:35;15.80;1.00
11894;DHT22;6006;49.696;8.662;2022-10-03T14:41:29;15.80;99.90
11894;DHT22;6006;49.696;8.662;2022-10-03T14:44:01;16.10;1.00
11894;DHT22;6006;49.696;8.662;2022-10-03T14:46:32;16.00;1.00
11894;DHT22;6006;49.696;8.662;2022-10-03T14:49:04;16.30;99.90
11894;DHT22;6006;49.696;8.662;2022-10-03T14:51:36;16.60;99.90
11894;DHT22;6006;49.696;8.662;2022-10-03T14:54:06;16.80;1.00
11894;DHT22;6006;49.696;8.662;2022-10-03T14:56:43;16.80;99.90
11894;DHT22;6006;49.696;8.662;2022-10-03T14:59:16;16.80;1.00
11894;DHT22;6006;49.696;8.662;2022-10-03T15:01:49;17.00;1.00
11894;DHT22;6006;49.696;8.662;2022-10-03T15:04:25;17.00;1.00
11894;DHT22;6006;49.696;8.662;2022-10-03T15:06:54;16.80;1.00
11894;DHT22;6006;49.696;8.662;2022-10-03T15:09:24;17.00;99.90
11894;DHT22;6006;49.696;8.662;2022-10-03T15:12:03;17.00;1.00
11894;DHT22;6006;49.696;8.662;2022-10-03T15:14:35;17.10;99.90
11894;DHT22;6006;49.696;8.662;2022-10-03T15:17:13;17.20;99.90
11894;DHT22;6006;49.696;8.662;2022-10-03T15:19:44;17.40;99.90
11894;DHT22;6006;49.696;8.662;2022-10-03T15:22:28;17.40;99.90
11894;DHT22;6006;49.696;8.662;2022-10-03T15:25:02;17.80;99.90
11894;DHT22;6006;49.696;8.662;2022-10-03T15:27:32;17.80;99.90
11894;DHT22;6006;49.696;8.662;2022-10-03T15:30:03;17.30;1.00
11894;DHT22;6006;49.696;8.662;2022-10-03T15:32:34;16.80;1.00
11894;DHT22;6006;49.696;8.662;2022-10-03T15:35:03;16.90;99.90
11894;DHT22;6006;49.696;8.662;2022-10-03T15:37:34;16.70;99.90
11894;DHT22;6006;49.696;8.662;2022-10-03T15:40:07;16.90;1.00
11894;DHT22;6006;49.696;8.662;2022-10-03T15:42:47;16.80;1.00
11894;DHT22;6006;49.696;8.662;2022-10-03T15:45:22;16.70;99.90
11894;DHT22;6006;49.696;8.662;2022-10-03T15:47:50;16.60;1.00
11894;DHT22;6006;49.696;8.662;2022-10-03T15:50:21;16.50;1.00
11894;DHT22;6006;49.696;8.662;2022-10-03T15:52:51;16.30;99.90
11894;DHT22;6006;49.696;8.662;2022-10-03T15:55:22;15.90;1.00
11894;DHT22;6006;49.696;8.662;2022-10-03T15:57:57;15.80;1.00
11894;DHT22;6006;49.696;8.662;2022-10-03T16:00:27;15.80;49.50
11894;DHT22;6006;49.696;8.662;2022-10-03T16:03:03;15.80;1.00
11894;DHT22;6006;49.696;8.662;2022-10-03T16:05:33;15.60;99.90
11894;DHT22;6006;49.696;8.662;2022-10-03T16:08:05;15.60;99.90
11894;DHT22;6006;49.696;8.662;2022-10-03T16:10:35;15.50;99.90
11894;DHT22;6006;49.696;8.662;2022-10-03T16:13:20;15.50;1.00
11894;DHT22;6006;49.696;8.662;2022-10-03T16:16:15;15.30;1.00
11894;DHT22;6006;49.696;8.662;2022-10-03T16:18:55;15.10;1.00
11894;DHT22;6006;49.696;8.662;2022-10-03T16:21:42;15.00;1.00
11894;DHT22;6006;49.696;8.662;2022-10-03T16:24:21;14.80;1.00
11894;DHT22;6006;49.696;8.662;2022-10-03T16:26:53;14.70;11.60
11894;DHT22;6006;49.696;8.662;2022-10-03T16:29:25;14.50;72.20
11894;DHT22;6006;49.696;8.662;2022-10-03T16:31:55;14.30;11.40
11894;DHT22;6006;49.696;8.662;2022-10-03T16:34:25;14.00;99.90
11894;DHT22;6006;49.696;8.662;2022-10-03T16:36:56;13.90;99.90
11894;DHT22;6006;49.696;8.662;2022-10-03T16:39:26;13.60;99.90
11894;DHT22;6006;49.696;8.662;2022-10-03T16:41:54;13.60;99.90
11894;DHT22;6006;49.696;8.662;2022-10-03T16:44:26;13.50;99.90
11894;DHT22;6006;49.696;8.662;2022-10-03T16:46:56;13.40;99.90
11894;DHT22;6006;49.696;8.662;2022-10-03T16:49:37;13.30;99.90
11894;DHT22;6006;49.696;8.662;2022-10-03T16:52:47;13.20;99.90
11894;DHT22;6006;49.696;8.662;2022-10-03T16:55:19;13.00;99.90
11894;DHT22;6006;49.696;8.662;2022-10-03T16:57:51;12.80;99.90
11894;DHT22;6006;49.696;8.662;2022-10-03T17:00:23;12.60;99.90
11894;DHT22;6006;49.696;8.662;2022-10-03T17:02:55;12.50;99.90
11894;DHT22;6006;49.696;8.662;2022-10-03T17:05:22;12.30;99.90
11894;DHT22;6006;49.696;8.662;2022-10-03T17:07:56;12.20;99.90
11894;DHT22;6006;49.696;8.662;2022-10-03T17:10:34;12.20;99.90
11894;DHT22;6006;49.696;8.662;2022-10-03T17:13:05;12.10;99.90
11894;DHT22;6006;49.696;8.662;2022-10-03T17:15:44;12.10;99.90
11894;DHT22;6006;49.696;8.662;2022-10-03T17:18:19;12.00;99.90
11894;DHT22;6006;49.696;8.662;2022-10-03T17:20:51;12.00;99.90
11894;DHT22;6006;49.696;8.662;2022-10-03T17:23:26;11.90;99.90
11894;DHT22;6006;49.696;8.662;2022-10-03T17:26:02;11.80;99.90
11894;DHT22;6006;49.696;8.662;2022-10-03T17:28:37;11.70;99.90
11894;DHT22;6006;49.696;8.662;2022-10-03T17:31:12;11.70;99.90
11894;DHT22;6006;49.696;8.662;2022-10-03T17:33:49;11.60;99.90
11894;DHT22;6006;49.696;8.662;2022-10-03T17:36:39;11.50;99.90
11894;DHT22;6006;49.696;8.662;2022-10-03T17:39:16;11.40;99.90
11894;DHT22;6006;49.696;8.662;2022-10-03T17:41:50;11.30;99.90
11894;DHT22;6006;49.696;8.662;2022-10-03T17:44:27;11.20;99.90
11894;DHT22;6006;49.696;8.662;2022-10-03T17:47:02;11.10;99.90
11894;DHT22;6006;49.696;8.662;2022-10-03T17:49:42;11.00;99.90
11894;DHT22;6006;49.696;8.662;2022-10-03T17:52:14;10.90;99.90
11894;DHT22;6006;49.696;8.662;2022-10-03T17:54:47;10.80;99.90
11894;DHT22;6006;49.696;8.662;2022-10-03T17:57:20;10.80;99.90
11894;DHT22;6006;49.696;8.662;2022-10-03T17:59:53;10.70;99.90
11894;DHT22;6006;49.696;8.662;2022-10-03T18:02:30;10.70;99.90
11894;DHT22;6006;49.696;8.662;2022-10-03T18:05:07;10.70;99.90
11894;DHT22;6006;49.696;8.662;2022-10-03T18:07:37;10.70;99.90
11894;DHT22;6006;49.696;8.662;2022-10-03T18:10:17;10.60;99.90
11894;DHT22;6006;49.696;8.662;2022-10-03T18:12:46;10.60;99.90
11894;DHT22;6006;49.696;8.662;2022-10-03T18:15:35;10.50;99.90
11894;DHT22;6006;49.696;8.662;2022-10-03T18:21:14;10.40;99.90
11894;DHT22;6006;49.696;8.662;2022-10-03T18:24:05;10.40;99.90
11894;DHT22;6006;49.696;8.662;2022-10-03T18:26:40;10.30;99.90
11894;DHT22;6006;49.696;8.662;2022-10-03T18:29:17;10.30;99.90
11894;DHT22;6006;49.696;8.662;2022-10-03T18:31:48;10.20;99.90
11894;DHT22;6006;49.696;8.662;2022-10-03T18:34:19;10.20;99.90
11894;DHT22;6006;49.696;8.662;2022-10-03T18:36:49;10.10;99.90
11894;DHT22;6006;49.696;8.662;2022-10-03T18:39:19;10.10;99.90
11894;DHT22;6006;49.696;8.662;2022-10-03T18:41:52;10.10;99.90
11894;DHT22;6006;49.696;8.662;2022-10-03T18:44:24;10.00;99.90
11894;DHT22;6006;49.696;8.662;2022-10-03T18:47:06;9.90;99.90
11894;DHT22;6006;49.696;8.662;2022-10-03T18:49:38;9.90;99.90
11894;DHT22;6006;49.696;8.662;2022-10-03T18:52:10;9.80;99.90
11894;DHT22;6006;49.696;8.662;2022-10-03T18:54:49;9.80;99.90
11894;DHT22;6006;49.696;8.662;2022-10-03T18:57:24;9.70;99.90
11894;DHT22;6006;49.696;8.662;2022-10-03T18:59:55;9.70;99.90
11894;DHT22;6006;49.696;8.662;2022-10-03T19:02:31;9.70;99.90
11894;DHT22;6006;49.696;8.662;2022-10-03T19:05:06;9.60;99.90
11894;DHT22;6006;49.696;8.662;2022-10-03T19:07:42;9.60;99.90
11894;DHT22;6006;49.696;8.662;2022-10-03T19:10:30;9.50;99.90
11894;DHT22;6006;49.696;8.662;2022-10-03T19:13:07;9.50;99.90
11894;DHT22;6006;49.696;8.662;2022-10-03T19:15:48;9.50;99.90
11894;DHT22;6006;49.696;8.662;2022-10-03T19:18:21;9.40;99.90
11894;DHT22;6006;49.696;8.662;2022-10-03T19:20:52;9.40;99.90
11894;DHT22;6006;49.696;8.662;2022-10-03T19:23:23;9.30;99.90
11894;DHT22;6006;49.696;8.662;2022-10-03T19:25:53;9.30;99.90
11894;DHT22;6006;49.696;8.662;2022-10-03T19:28:26;9.30;99.90
11894;DHT22;6006;49.696;8.662;2022-10-03T19:30:58;9.20;99.90
11894;DHT22;6006;49.696;8.662;2022-10-03T19:33:28;9.20;99.90
11894;DHT22;6006;49.696;8.662;2022-10-03T19:36:00;9.20;99.90
11894;DHT22;6006;49.696;8.662;2022-10-03T19:38:31;9.10;99.90
11894;DHT22;6006;49.696;8.662;2022-10-03T19:41:01;9.10;99.90
11894;DHT22;6006;49.696;8.662;2022-10-03T19:43:37;9.10;99.90
11894;DHT22;6006;49.696;8.662;2022-10-03T19:46:11;9.00;99.90
11894;DHT22;6006;49.696;8.662;2022-10-03T19:48:43;9.00;99.90
11894;DHT22;6006;49.696;8.662;2022-10-03T19:51:14;9.00;99.90
11894;DHT22;6006;49.696;8.662;2022-10-03T19:53:43;8.90;99.90
11894;DHT22;6006;49.696;8.662;2022-10-03T19:56:13;8.90;99.90
11894;DHT22;6006;49.696;8.662;2022-10-03T19:58:43;8.90;99.90
11894;DHT22;6006;49.696;8.662;2022-10-03T20:01:11;8.80;99.90
11894;DHT22;6006;49.696;8.662;2022-10-03T20:03:42;8.70;99.90
11894;DHT22;6006;49.696;8.662;2022-10-03T20:06:17;8.70;99.90
11894;DHT22;6006;49.696;8.662;2022-10-03T20:08:45;8.70;99.90
11894;DHT22;6006;49.696;8.662;2022-10-03T20:11:29;8.70;99.90
11894;DHT22;6006;49.696;8.662;2022-10-03T20:14:01;8.70;99.90
11894;DHT22;6006;49.696;8.662;2022-10-03T20:16:30;8.70;99.90
11894;DHT22;6006;49.696;8.662;2022-10-03T20:19:05;8.60;99.90
11894;DHT22;6006;49.696;8.662;2022-10-03T20:21:33;8.60;99.90
11894;DHT22;6006;49.696;8.662;2022-10-03T20:24:02;8.60;99.90
11894;DHT22;6006;49.696;8.662;2022-10-03T20:26:37;8.60;99.90
11894;DHT22;6006;49.696;8.662;2022-10-03T20:29:19;8.50;99.90
11894;DHT22;6006;49.696;8.662;2022-10-03T20:31:48;8.50;99.90
11894;DHT22;6006;49.696;8.662;2022-10-03T20:34:20;8.50;99.90
11894;DHT22;6006;49.696;8.662;2022-10-03T20:36:50;8.40;99.90